Time;durP1;ratioP1;P1;durP2;ratioP2;P2;SDS_P1;SDS_P2;PMS_P1;PMS_P2;Temp;Humidity;BMP_temperature;BMP_pressure;BME280_temperature;BME280_humidity;BME280_pressure;Samples;Min_cycle;Max_cycle;Signal;HPM_P1;HPM_P2
2020/12/05 00:00:29;;;;;;;34.35;18.27;;;21.40;40.60;;;;;;1036980;28;20010;-69
2020/12/05 00:01:00;;;;;;;38.42;19.33;;;21.30;40.80;;;;;;1038338;28;20018;-70
2020/12/05 00:01:32;;;;;;;36.83;18.70;;;21.30;40.60;;;;;;1038441;28;20025;-71
2020/12/05 00:02:03;;;;;;;37.58;18.17;;;21.30;40.60;;;;;;1037243;28;20006;-71
2020/12/05 00:02:35;;;;;;;31.77;18.25;;;21.30;40.60;;;;;;1035602;28;20022;-72
2020/12/05 00:03:06;;;;;;;36.58;18.75;;;21.30;40.60;;;;;;1045151;28;20009;-71
2020/12/05 00:03:37;;;;;;;36.60;19.63;;;21.30;40.80;;;;;;1045160;28;20074;-71
2020/12/05 00:04:09;;;;;;;38.78;20.17;;;21.20;40.80;;;;;;1041379;28;20018;-71
2020/12/05 00:04:40;;;;;;;42.58;21.45;;;21.30;41.00;;;;;;1045203;28;20009;-71
2020/12/05 00:05:12;;;;;;;42.05;20.38;;;21.20;41.10;;;;;;1041282;28;20040;-71
2020/12/05 00:05:46;;;;;;;40.83;20.35;;;21.20;41.20;;;;;;1037867;28;20120;-71
2020/12/05 00:06:22;;;;;;;42.83;21.17;;;21.20;41.40;;;;;;1039678;28;20026;-71
2020/12/05 00:06:53;;;;;;;37.90;20.55;;;21.20;41.70;;;;;;1034539;28;20030;-70
2020/12/05 00:07:25;;;;;;;38.42;20.85;;;21.10;41.90;;;;;;1036393;28;20022;-71
2020/12/05 00:07:56;;;;;;;42.10;21.45;;;21.10;42.00;;;;;;1037601;28;20026;-71
2020/12/05 00:08:28;;;;;;;36.72;20.77;;;21.10;42.00;;;;;;1035079;28;20025;-70
2020/12/05 00:08:59;;;;;;;37.20;20.70;;;21.10;42.20;;;;;;1038117;28;20014;-70
2020/12/05 00:09:31;;;;;;;37.63;19.95;;;21.10;42.20;;;;;;1040385;28;20025;-70
2020/12/05 00:10:02;;;;;;;33.95;19.75;;;21.10;42.30;;;;;;1039449;28;20017;-71
2020/12/05 00:10:34;;;;;;;35.38;20.45;;;21.10;42.20;;;;;;1041252;28;20017;-71
2020/12/05 00:11:05;;;;;;;36.33;20.98;;;21.00;42.20;;;;;;1040596;28;20040;-71
2020/12/05 00:11:37;;;;;;;39.00;21.95;;;21.00;42.30;;;;;;1040911;28;20010;-71
2020/12/05 00:12:10;;;;;;;41.15;19.95;;;21.00;42.10;;;;;;1036762;28;20014;-71
2020/12/05 00:12:42;;;;;;;36.83;20.25;;;21.00;42.10;;;;;;1036997;28;20352;-71
2020/12/05 00:13:15;;;;;;;38.03;20.15;;;21.00;42.20;;;;;;1036098;28;20013;-71
2020/12/05 00:13:47;;;;;;;34.90;19.60;;;21.00;42.40;;;;;;1037844;28;20355;-70
2020/12/05 00:14:18;;;;;;;36.33;19.98;;;21.00;42.50;;;;;;1039296;28;20325;-71
2020/12/05 00:14:50;;;;;;;36.80;19.48;;;20.90;42.50;;;;;;1037135;28;20099;-71
2020/12/05 00:15:22;;;;;;;42.50;20.52;;;20.90;42.70;;;;;;1036877;28;20026;-71
2020/12/05 00:15:53;;;;;;;38.38;19.98;;;20.90;42.90;;;;;;1036826;28;20352;-71
2020/12/05 00:16:24;;;;;;;34.85;19.73;;;20.90;43.00;;;;;;1036965;28;20458;-71
2020/12/05 00:16:56;;;;;;;34.20;19.73;;;20.90;43.10;;;;;;1036608;28;20029;-71
2020/12/05 00:17:27;;;;;;;34.25;20.23;;;20.90;43.10;;;;;;1040983;28;20079;-71
2020/12/05 00:17:59;;;;;;;38.38;19.88;;;20.80;42.90;;;;;;1037099;28;20432;-71
2020/12/05 00:18:30;;;;;;;38.70;19.67;;;20.80;43.10;;;;;;1037210;28;20057;-71
2020/12/05 00:19:02;;;;;;;34.33;19.25;;;20.80;42.90;;;;;;1038879;28;20053;-71
2020/12/05 00:19:33;;;;;;;32.85;18.75;;;20.80;42.90;;;;;;1039601;28;20046;-70
2020/12/05 00:20:04;;;;;;;33.15;19.52;;;20.70;42.80;;;;;;1041117;28;20009;-70
2020/12/05 00:20:36;;;;;;;37.38;19.92;;;20.80;42.80;;;;;;1038720;28;20086;-72
2020/12/05 00:21:08;;;;;;;37.28;19.38;;;20.70;42.70;;;;;;1037912;28;20014;-70
2020/12/05 00:21:39;;;;;;;35.38;19.05;;;20.70;42.70;;;;;;1037154;28;20344;-69
2020/12/05 00:22:11;;;;;;;42.38;18.73;;;20.70;42.80;;;;;;1037185;28;20050;-69
2020/12/05 00:22:42;;;;;;;39.90;19.15;;;20.70;42.90;;;;;;1040208;28;20048;-71
2020/12/05 00:23:14;;;;;;;30.63;17.40;;;20.60;42.90;;;;;;1039620;28;20130;-70
2020/12/05 00:23:45;;;;;;;33.33;17.80;;;20.60;42.90;;;;;;1039638;28;20068;-70
2020/12/05 00:24:17;;;;;;;35.90;18.35;;;20.60;42.90;;;;;;1038026;28;20097;-71
2020/12/05 00:24:48;;;;;;;36.15;19.80;;;20.60;43.40;;;;;;1037149;28;20010;-70
2020/12/05 00:25:20;;;;;;;34.33;17.85;;;20.60;43.80;;;;;;1037082;28;20018;-72
2020/12/05 00:25:51;;;;;;;33.33;16.38;;;20.50;43.30;;;;;;1034857;28;20030;-71
2020/12/05 00:26:23;;;;;;;31.52;15.70;;;20.50;43.00;;;;;;1034700;28;20029;-70
2020/12/05 00:26:54;;;;;;;24.95;14.23;;;20.40;42.60;;;;;;1033292;28;20026;-69
2020/12/05 00:27:26;;;;;;;32.75;14.20;;;20.40;42.40;;;;;;1036946;28;20026;-71
2020/12/05 00:27:57;;;;;;;27.65;13.38;;;20.40;42.20;;;;;;1039911;28;20014;-71
2020/12/05 00:28:29;;;;;;;24.92;12.98;;;20.30;41.90;;;;;;1041080;28;20026;-71
2020/12/05 00:29:00;;;;;;;24.05;12.13;;;20.20;41.80;;;;;;1041163;28;20020;-71
2020/12/05 00:29:32;;;;;;;27.80;12.30;;;20.20;41.70;;;;;;1040073;28;20022;-71
2020/12/05 00:30:03;;;;;;;26.20;12.02;;;20.20;41.70;;;;;;1039908;28;20067;-71
2020/12/05 00:30:35;;;;;;;27.75;12.02;;;20.10;41.70;;;;;;1040611;28;20147;-69
2020/12/05 00:31:06;;;;;;;23.17;11.85;;;20.10;41.90;;;;;;1037186;28;20053;-71
2020/12/05 00:31:38;;;;;;;23.17;10.75;;;20.00;41.90;;;;;;1037594;28;20458;-70
2020/12/05 00:32:09;;;;;;;23.10;11.52;;;20.00;42.00;;;;;;1038840;28;20010;-71
2020/12/05 00:32:41;;;;;;;25.02;11.50;;;19.90;42.10;;;;;;1038575;28;20021;-71
2020/12/05 00:33:12;;;;;;;22.27;11.70;;;19.90;42.20;;;;;;1036809;28;20033;-71
2020/12/05 00:33:44;;;;;;;23.05;11.18;;;19.80;42.20;;;;;;1036730;28;20014;-71
2020/12/05 00:34:15;;;;;;;27.50;12.35;;;19.80;42.30;;;;;;1037374;28;20010;-71
2020/12/05 00:34:47;;;;;;;25.30;11.90;;;19.80;42.40;;;;;;1036814;28;20010;-71
2020/12/05 00:35:18;;;;;;;24.02;10.93;;;19.80;42.50;;;;;;1037071;28;20056;-71
2020/12/05 00:35:52;;;;;;;24.77;11.68;;;19.70;42.50;;;;;;1037006;28;20089;-70
2020/12/05 00:36:23;;;;;;;23.10;11.95;;;19.70;42.40;;;;;;1037051;28;20010;-71
2020/12/05 00:36:55;;;;;;;23.40;11.55;;;19.70;42.40;;;;;;1038748;28;20032;-70
2020/12/05 00:37:32;;;;;;;25.67;11.68;;;19.60;42.30;;;;;;1037300;28;20073;-70
2020/12/05 00:38:03;;;;;;;27.00;11.27;;;19.60;42.30;;;;;;1040930;28;20476;-71
2020/12/05 00:38:36;;;;;;;24.00;11.05;;;19.60;42.30;;;;;;1041139;28;20028;-70
2020/12/05 00:39:08;;;;;;;22.20;11.88;;;19.50;42.20;;;;;;1037511;28;20383;-71
2020/12/05 00:39:39;;;;;;;23.13;11.85;;;19.50;42.20;;;;;;1037585;28;20021;-71
2020/12/05 00:40:11;;;;;;;21.52;11.57;;;19.50;42.20;;;;;;1040201;28;20538;-71
2020/12/05 00:40:42;;;;;;;24.63;11.55;;;19.50;42.40;;;;;;1038181;28;20014;-70
2020/12/05 00:41:18;;;;;;;25.40;11.55;;;19.40;42.50;;;;;;1038729;28;20079;-71
2020/12/05 00:41:53;;;;;;;23.95;11.75;;;19.40;42.60;;;;;;1040250;28;20037;-70
2020/12/05 00:42:26;;;;;;;21.55;11.27;;;19.30;42.70;;;;;;1038309;28;20071;-71
2020/12/05 00:42:57;;;;;;;28.42;12.23;;;19.20;42.70;;;;;;1032682;28;20022;-71
2020/12/05 00:43:29;;;;;;;22.90;11.90;;;19.20;42.90;;;;;;1033957;28;20014;-70
2020/12/05 00:44:00;;;;;;;28.73;12.68;;;19.10;43.60;;;;;;1036056;28;20378;-70
2020/12/05 00:44:32;;;;;;;26.77;12.55;;;19.10;43.20;;;;;;1037636;28;20036;-71
2020/12/05 00:45:03;;;;;;;23.90;12.63;;;19.00;43.30;;;;;;1036611;28;20529;-70
2020/12/05 00:45:35;;;;;;;24.67;12.50;;;18.90;43.40;;;;;;1037818;28;20032;-73
2020/12/05 00:46:06;;;;;;;24.70;12.18;;;18.90;43.50;;;;;;1040137;28;20033;-70
2020/12/05 00:46:40;;;;;;;26.27;12.60;;;18.80;43.60;;;;;;1033994;28;20018;-70
2020/12/05 00:47:12;;;;;;;21.77;11.63;;;18.80;43.70;;;;;;1036838;28;20021;-70
2020/12/05 00:47:43;;;;;;;20.88;12.02;;;18.80;43.80;;;;;;1036690;28;20025;-70
2020/12/05 00:48:15;;;;;;;28.65;12.05;;;18.80;43.80;;;;;;1040122;28;20021;-71
2020/12/05 00:48:47;;;;;;;28.02;12.32;;;18.80;43.90;;;;;;1045207;28;20016;-71
2020/12/05 00:49:19;;;;;;;23.55;11.25;;;18.70;43.90;;;;;;1044860;28;20013;-70
2020/12/05 00:49:50;;;;;;;26.27;12.25;;;18.70;43.90;;;;;;1044760;28;20024;-71
2020/12/05 00:50:22;;;;;;;24.30;11.95;;;18.70;44.10;;;;;;1040772;28;20538;-71
2020/12/05 00:50:53;;;;;;;21.67;11.48;;;18.70;44.20;;;;;;1035315;28;20040;-70
2020/12/05 00:51:25;;;;;;;26.10;11.25;;;18.70;44.20;;;;;;1037165;28;20116;-71
2020/12/05 00:51:56;;;;;;;22.42;11.50;;;18.60;44.30;;;;;;1037453;28;20026;-71
2020/12/05 00:52:27;;;;;;;19.63;11.02;;;18.60;44.40;;;;;;1042860;28;20017;-71
2020/12/05 00:52:59;;;;;;;26.75;11.57;;;18.60;44.60;;;;;;1045037;28;20017;-71
2020/12/05 00:53:31;;;;;;;20.92;11.43;;;18.60;44.60;;;;;;1045199;28;20013;-71
2020/12/05 00:54:03;;;;;;;22.05;11.00;;;18.60;44.60;;;;;;1045085;28;20021;-71
2020/12/05 00:54:34;;;;;;;21.35;11.48;;;18.60;44.60;;;;;;1045171;28;20024;-71
2020/12/05 00:55:06;;;;;;;25.90;11.85;;;18.50;44.50;;;;;;1041886;28;20324;-71
2020/12/05 00:55:37;;;;;;;20.70;10.98;;;18.50;44.70;;;;;;1036912;28;20079;-71
2020/12/05 00:56:09;;;;;;;26.20;12.00;;;18.40;44.70;;;;;;1036671;28;20442;-71
2020/12/05 00:56:41;;;;;;;22.02;11.35;;;18.40;44.80;;;;;;1038567;28;20018;-71
2020/12/05 00:57:12;;;;;;;23.30;11.85;;;18.30;44.80;;;;;;1038209;28;20072;-71
2020/12/05 00:57:43;;;;;;;25.00;12.02;;;18.30;44.90;;;;;;1038929;28;20464;-71
2020/12/05 00:58:15;;;;;;;21.55;11.95;;;18.20;44.80;;;;;;1040719;28;20056;-71
2020/12/05 00:58:47;;;;;;;21.90;11.40;;;18.20;44.80;;;;;;1040916;28;20021;-71
2020/12/05 00:59:18;;;;;;;30.80;11.63;;;18.20;44.90;;;;;;1040747;28;20051;-71
2020/12/05 00:59:50;;;;;;;23.27;10.80;;;18.10;44.90;;;;;;1040490;28;20024;-71
2020/12/05 01:00:21;;;;;;;20.13;10.82;;;18.00;45.00;;;;;;1032462;28;20042;-71
2020/12/05 01:00:53;;;;;;;20.70;10.50;;;18.00;45.10;;;;;;1033000;28;20027;-71
2020/12/05 01:01:24;;;;;;;22.20;10.35;;;18.00;45.10;;;;;;1039023;28;20105;-71
2020/12/05 01:01:56;;;;;;;22.30;11.00;;;17.90;45.10;;;;;;1040785;28;20028;-71
2020/12/05 01:02:27;;;;;;;22.13;10.57;;;17.90;45.20;;;;;;1040727;28;20032;-71
2020/12/05 01:02:59;;;;;;;21.17;10.68;;;17.90;45.20;;;;;;1037004;28;20030;-71
2020/12/05 01:03:31;;;;;;;22.15;10.55;;;17.80;45.20;;;;;;1037610;28;20046;-72
2020/12/05 01:04:02;;;;;;;19.83;10.55;;;17.80;45.20;;;;;;1037152;28;20014;-71
2020/12/05 01:04:34;;;;;;;22.55;10.90;;;17.80;45.20;;;;;;1041424;28;20357;-71
2020/12/05 01:05:05;;;;;;;20.80;10.85;;;17.80;45.20;;;;;;1037306;28;20476;-72
2020/12/05 01:05:37;;;;;;;19.92;10.30;;;17.80;45.40;;;;;;1040751;28;20014;-71
2020/12/05 01:06:17;;;;;;;20.67;10.55;;;17.70;45.40;;;;;;1040802;28;20009;-72
2020/12/05 01:06:49;;;;;;;22.15;10.43;;;17.70;45.50;;;;;;1037900;28;20108;-71
2020/12/05 01:07:27;;;;;;;17.90;10.27;;;17.60;45.50;;;;;;1036890;28;20022;-72
2020/12/05 01:08:02;;;;;;;21.90;11.00;;;17.60;45.50;;;;;;1040228;28;20017;-71
2020/12/05 01:08:33;;;;;;;21.13;11.00;;;17.50;45.30;;;;;;1040924;28;20014;-71
2020/12/05 01:09:05;;;;;;;18.17;10.10;;;17.40;45.40;;;;;;1037911;28;20052;-71
2020/12/05 01:09:36;;;;;;;23.10;11.10;;;17.40;45.50;;;;;;1037539;28;20121;-71
2020/12/05 01:10:08;;;;;;;23.77;10.95;;;17.30;45.60;;;;;;1036793;28;20399;-71
2020/12/05 01:10:39;;;;;;;25.50;11.13;;;17.20;45.70;;;;;;1036616;28;20025;-71
2020/12/05 01:11:20;;;;;;;18.02;10.27;;;17.20;45.90;;;;;;1036648;28;20360;-71
2020/12/05 01:11:52;;;;;;;23.67;10.73;;;17.10;46.00;;;;;;1040397;28;20021;-71
2020/12/05 01:12:26;;;;;;;20.60;10.32;;;17.10;46.00;;;;;;1038444;28;20018;-71
2020/12/05 01:13:01;;;;;;;20.83;10.75;;;17.10;46.00;;;;;;1039396;28;20107;-73
2020/12/05 01:13:32;;;;;;;20.60;10.90;;;17.10;46.10;;;;;;1037681;28;20041;-72
2020/12/05 01:14:04;;;;;;;21.95;10.32;;;17.10;46.70;;;;;;1036849;28;20033;-72
2020/12/05 01:14:35;;;;;;;22.05;10.70;;;17.10;46.10;;;;;;1034096;28;20033;-72
2020/12/05 01:15:07;;;;;;;21.27;10.45;;;17.10;46.10;;;;;;1029889;28;20065;-72
2020/12/05 01:15:38;;;;;;;21.75;10.52;;;17.10;46.20;;;;;;1032778;28;20022;-72
2020/12/05 01:16:16;;;;;;;21.48;10.48;;;17.10;46.30;;;;;;1029654;28;20038;-71
2020/12/05 01:16:47;;;;;;;18.73;10.63;;;17.00;46.40;;;;;;1035067;28;20092;-72
2020/12/05 01:17:25;;;;;;;19.80;10.43;;;17.00;46.40;;;;;;1034490;28;20029;-72
2020/12/05 01:17:57;;;;;;;23.52;10.38;;;17.00;46.60;;;;;;1032759;28;20507;-72
2020/12/05 01:18:28;;;;;;;21.67;10.85;;;16.90;46.50;;;;;;1033679;28;20349;-72
2020/12/05 01:19:00;;;;;;;20.38;10.52;;;16.90;46.70;;;;;;1036809;28;20045;-72
2020/12/05 01:19:31;;;;;;;17.85;10.40;;;16.90;46.70;;;;;;1039767;28;20014;-72
2020/12/05 01:20:07;;;;;;;20.77;10.25;;;16.90;46.70;;;;;;1040830;28;20448;-72
2020/12/05 01:20:38;;;;;;;21.33;11.15;;;16.90;46.80;;;;;;1037199;28;20049;-72
2020/12/05 01:21:13;;;;;;;18.63;10.63;;;16.80;46.80;;;;;;1041058;28;20040;-72
2020/12/05 01:21:45;;;;;;;23.40;10.30;;;16.80;46.80;;;;;;1040174;28;20347;-72
2020/12/05 01:22:20;;;;;;;19.38;10.13;;;16.80;46.90;;;;;;1039444;28;20014;-72
2020/12/05 01:22:51;;;;;;;19.40;9.38;;;16.80;47.00;;;;;;1037564;28;20490;-72
2020/12/05 01:23:23;;;;;;;18.52;10.63;;;16.80;47.00;;;;;;1040594;28;20021;-72
2020/12/05 01:23:54;;;;;;;18.92;10.05;;;16.70;47.10;;;;;;1040250;28;20469;-72
2020/12/05 01:24:25;;;;;;;18.08;10.25;;;16.70;47.10;;;;;;1040039;28;20013;-72
2020/12/05 01:24:57;;;;;;;22.30;10.32;;;16.70;47.20;;;;;;1037703;28;20005;-73
2020/12/05 01:25:28;;;;;;;20.48;10.45;;;16.70;47.20;;;;;;1037447;28;20457;-72
2020/12/05 01:26:00;;;;;;;25.92;10.55;;;16.70;47.20;;;;;;1037403;28;20010;-72
2020/12/05 01:26:31;;;;;;;18.65;10.00;;;16.70;47.20;;;;;;1040238;28;20036;-73
2020/12/05 01:27:03;;;;;;;19.83;10.52;;;16.70;47.20;;;;;;1040621;28;20005;-72
2020/12/05 01:27:35;;;;;;;23.33;11.20;;;16.60;47.10;;;;;;1038388;28;20009;-72
2020/12/05 01:28:06;;;;;;;20.10;10.10;;;16.60;47.10;;;;;;1036810;28;20010;-72
2020/12/05 01:28:38;;;;;;;22.00;10.85;;;16.60;47.20;;;;;;1036543;28;20010;-72
2020/12/05 01:29:09;;;;;;;24.98;10.65;;;16.60;47.20;;;;;;1037941;28;20013;-72
2020/12/05 01:29:41;;;;;;;21.30;11.38;;;16.50;47.20;;;;;;1036675;28;20005;-72
2020/12/05 01:30:12;;;;;;;19.83;10.25;;;16.50;47.20;;;;;;1035877;28;20014;-71
2020/12/05 01:30:44;;;;;;;18.90;10.35;;;16.50;47.20;;;;;;1037110;28;20029;-72
2020/12/05 01:31:15;;;;;;;22.42;10.60;;;16.50;47.20;;;;;;1040832;28;20017;-72
2020/12/05 01:31:50;;;;;;;22.75;10.93;;;16.50;47.20;;;;;;1038967;28;20340;-71
2020/12/05 01:32:21;;;;;;;30.23;11.18;;;16.50;47.40;;;;;;1038952;28;20454;-72
2020/12/05 01:32:55;;;;;;;20.77;10.90;;;16.40;47.40;;;;;;1040657;28;20064;-72
2020/12/05 01:33:27;;;;;;;20.70;10.85;;;16.40;47.40;;;;;;1039504;28;20324;-72
2020/12/05 01:34:02;;;;;;;20.95;10.75;;;16.40;47.50;;;;;;1037042;28;20010;-71
2020/12/05 01:34:34;;;;;;;19.88;10.55;;;16.40;47.50;;;;;;1037572;28;20044;-72
2020/12/05 01:35:06;;;;;;;21.83;10.35;;;16.40;47.50;;;;;;1037730;28;20064;-72
2020/12/05 01:35:37;;;;;;;20.88;11.10;;;16.30;47.40;;;;;;1036044;28;20078;-71
2020/12/05 01:36:09;;;;;;;20.52;10.50;;;16.30;47.60;;;;;;1031862;28;20019;-72
2020/12/05 01:36:45;;;;;;;21.75;9.98;;;16.30;47.70;;;;;;1036210;28;20023;-72
2020/12/05 01:37:17;;;;;;;27.98;10.70;;;16.20;47.50;;;;;;1034610;28;20460;-72
2020/12/05 01:37:48;;;;;;;18.77;10.45;;;16.10;47.30;;;;;;1035088;28;20364;-72
2020/12/05 01:38:20;;;;;;;24.77;10.65;;;16.00;47.30;;;;;;1038317;28;20029;-72
2020/12/05 01:38:51;;;;;;;18.02;9.73;;;16.00;47.50;;;;;;1038234;28;20027;-72
2020/12/05 01:39:22;;;;;;;19.17;9.93;;;16.00;47.50;;;;;;1039505;28;20025;-72
2020/12/05 01:39:54;;;;;;;16.55;9.90;;;16.00;47.70;;;;;;1040357;28;20043;-72
2020/12/05 01:40:25;;;;;;;24.88;10.63;;;16.00;47.60;;;;;;1033812;28;20029;-71
2020/12/05 01:40:59;;;;;;;19.17;10.63;;;16.00;47.80;;;;;;1036518;28;20105;-72
2020/12/05 01:41:30;;;;;;;19.13;9.77;;;15.90;48.00;;;;;;1032002;28;20093;-72
2020/12/05 01:42:02;;;;;;;21.17;10.52;;;15.90;48.00;;;;;;1034422;28;20092;-72
2020/12/05 01:42:34;;;;;;;18.90;9.95;;;15.90;48.10;;;;;;1038733;28;20037;-72
2020/12/05 01:43:05;;;;;;;20.90;10.57;;;15.90;48.20;;;;;;1036982;28;20352;-72
2020/12/05 01:43:40;;;;;;;16.58;9.23;;;15.90;48.20;;;;;;1041359;28;20028;-72
2020/12/05 01:44:11;;;;;;;23.33;10.23;;;15.90;48.20;;;;;;1038359;28;20017;-72
2020/12/05 01:44:43;;;;;;;20.63;10.40;;;15.80;48.20;;;;;;1036388;28;20022;-71
2020/12/05 01:45:14;;;;;;;18.02;9.68;;;15.80;48.30;;;;;;1039340;28;20033;-72
2020/12/05 01:45:50;;;;;;;19.67;9.35;;;15.80;48.30;;;;;;1040232;28;20037;-72
2020/12/05 01:46:38;;;;;;;20.17;10.07;;;15.80;47.90;;;;;;1040888;28;20022;-72
2020/12/05 01:47:10;;;;;;;18.02;9.57;;;15.70;48.10;;;;;;1040543;28;20021;-72
2020/12/05 01:47:42;;;;;;;16.30;9.68;;;15.70;48.10;;;;;;1039937;28;20033;-72
2020/12/05 01:48:15;;;;;;;17.20;9.07;;;15.70;48.30;;;;;;1037449;28;20101;-71
2020/12/05 01:48:47;;;;;;;18.17;9.40;;;15.70;48.30;;;;;;1040027;28;20013;-72
2020/12/05 01:49:31;;;;;;;17.10;9.55;;;15.70;48.40;;;;;;1040709;28;20352;-72
2020/12/05 01:50:03;;;;;;;19.70;10.00;;;15.70;48.50;;;;;;1040242;28;20014;-72
2020/12/05 01:50:35;;;;;;;18.15;9.30;;;15.60;48.50;;;;;;1036659;28;20046;-72
2020/12/05 01:51:06;;;;;;;18.90;9.73;;;15.70;48.50;;;;;;1040654;28;20104;-72
2020/12/05 01:51:38;;;;;;;20.00;9.27;;;15.60;48.50;;;;;;1040534;28;20096;-72
2020/12/05 01:52:10;;;;;;;16.88;9.00;;;15.60;48.50;;;;;;1036573;28;20455;-71
2020/12/05 01:52:43;;;;;;;17.35;9.00;;;15.60;48.40;;;;;;1039084;28;20024;-71
2020/12/05 01:53:15;;;;;;;18.42;9.68;;;15.60;48.40;;;;;;1039885;28;20354;-72
2020/12/05 01:53:47;;;;;;;16.80;9.35;;;15.50;48.30;;;;;;1036493;28;20060;-71
2020/12/05 01:54:18;;;;;;;19.23;9.32;;;15.50;48.20;;;;;;1037785;28;20021;-72
2020/12/05 01:54:51;;;;;;;18.23;9.40;;;15.50;48.20;;;;;;1036411;28;20088;-72
2020/12/05 01:55:23;;;;;;;18.02;9.23;;;15.50;48.30;;;;;;1036521;28;20025;-72
2020/12/05 01:55:54;;;;;;;18.63;9.38;;;15.50;48.30;;;;;;1037371;28;20033;-72
2020/12/05 01:56:27;;;;;;;16.52;9.18;;;15.50;48.50;;;;;;1039573;28;20017;-72
2020/12/05 01:57:04;;;;;;;18.55;9.32;;;15.50;48.50;;;;;;1036390;28;20029;-71
2020/12/05 01:57:35;;;;;;;15.98;9.00;;;15.50;49.10;;;;;;1038713;28;20018;-72
2020/12/05 01:58:07;;;;;;;19.30;9.20;;;15.40;48.30;;;;;;1037243;28;20104;-72
2020/12/05 01:58:38;;;;;;;17.60;8.52;;;15.40;48.30;;;;;;1037348;28;20025;-72
2020/12/05 01:59:10;;;;;;;17.60;8.88;;;15.50;48.00;;;;;;1039234;28;20028;-72
2020/12/05 01:59:42;;;;;;;19.70;9.27;;;15.40;47.70;;;;;;1036779;28;20060;-71
2020/12/05 02:00:14;;;;;;;18.92;9.25;;;15.40;47.50;;;;;;1036553;28;20014;-71
2020/12/05 02:00:46;;;;;;;16.58;8.63;;;15.40;47.60;;;;;;1038564;28;20387;-72
2020/12/05 02:01:21;;;;;;;17.88;9.30;;;15.40;47.70;;;;;;1040144;28;20024;-72
2020/12/05 02:01:57;;;;;;;15.57;8.25;;;15.40;48.40;;;;;;1036445;28;20021;-72
2020/12/05 02:02:28;;;;;;;16.60;7.85;;;15.30;47.50;;;;;;1033815;28;20081;-72
2020/12/05 02:03:00;;;;;;;16.83;8.55;;;15.30;47.50;;;;;;1028281;28;20023;-72
2020/12/05 02:03:31;;;;;;;18.00;8.57;;;15.30;47.60;;;;;;1031081;28;20038;-72
2020/12/05 02:04:03;;;;;;;16.13;7.90;;;15.30;47.60;;;;;;1032902;28;20531;-71
2020/12/05 02:04:48;;;;;;;15.13;8.30;;;15.30;47.50;;;;;;1035740;28;20029;-71
2020/12/05 02:06:02;;;;;;;13.68;7.75;;;15.30;47.30;;;;;;1038393;28;20097;-73
2020/12/05 02:06:34;;;;;;;16.65;7.97;;;15.20;47.10;;;;;;1036745;28;20314;-72
2020/12/05 02:07:17;;;;;;;16.10;8.13;;;15.20;47.20;;;;;;1038052;28;20014;-72
2020/12/05 02:08:12;;;;;;;17.17;8.63;;;15.20;47.60;;;;;;1039856;28;20028;-72
2020/12/05 02:09:08;;;;;;;15.73;8.38;;;15.10;47.70;;;;;;1035297;28;20044;-72
2020/12/05 02:09:45;;;;;;;15.93;7.90;;;15.00;47.80;;;;;;1040998;28;20358;-72
2020/12/05 02:10:24;;;;;;;21.38;8.90;;;15.00;47.90;;;;;;1036068;28;20014;-72
2020/12/05 02:10:57;;;;;;;19.67;8.80;;;15.00;48.10;;;;;;1037487;28;20022;-72
2020/12/05 02:11:40;;;;;;;20.60;8.65;;;14.90;48.00;;;;;;1036564;28;20399;-72
2020/12/05 02:12:26;;;;;;;18.10;9.70;;;14.90;48.20;;;;;;1039468;28;20100;-72
2020/12/05 02:13:26;;;;;;;22.17;10.00;;;14.80;48.30;;;;;;1037207;28;20097;-72
2020/12/05 02:14:01;;;;;;;18.75;10.40;;;14.70;48.50;;;;;;1040146;28;20088;-71
2020/12/05 02:14:37;;;;;;;20.25;10.95;;;14.70;48.60;;;;;;1036841;28;20041;-72
2020/12/05 02:15:12;;;;;;;21.38;11.57;;;14.70;48.60;;;;;;1036198;28;20026;-72
2020/12/05 02:15:49;;;;;;;24.20;11.95;;;14.60;48.80;;;;;;1039385;28;20026;-72
2020/12/05 02:16:22;;;;;;;23.25;12.80;;;14.60;49.00;;;;;;1036479;28;20324;-72
2020/12/05 02:17:00;;;;;;;24.73;11.75;;;14.60;49.10;;;;;;1037622;28;20045;-71
2020/12/05 02:17:36;;;;;;;21.70;11.32;;;14.60;49.10;;;;;;1040499;28;20060;-72
2020/12/05 02:18:09;;;;;;;19.27;11.65;;;14.60;49.10;;;;;;1038845;28;20025;-71
2020/12/05 02:18:45;;;;;;;20.08;10.23;;;14.60;49.00;;;;;;1037621;28;20027;-71
2020/12/05 02:19:19;;;;;;;21.20;10.20;;;14.50;48.90;;;;;;1040644;28;20021;-71
2020/12/05 02:19:52;;;;;;;19.42;10.20;;;14.50;49.00;;;;;;1037764;28;20359;-71
2020/12/05 02:20:26;;;;;;;21.88;9.90;;;14.50;49.00;;;;;;1037805;28;20474;-72
2020/12/05 02:21:02;;;;;;;19.08;9.13;;;14.50;49.00;;;;;;1036458;28;20025;-72
2020/12/05 02:21:38;;;;;;;17.30;8.65;;;14.60;48.80;;;;;;1036677;28;20025;-72
2020/12/05 02:22:13;;;;;;;16.73;8.88;;;14.50;48.80;;;;;;1039993;28;20032;-72
2020/12/05 02:22:48;;;;;;;17.75;8.80;;;14.50;49.30;;;;;;1036940;28;20014;-72
2020/12/05 02:23:20;;;;;;;13.82;8.25;;;14.50;49.50;;;;;;1036548;28;20009;-72
2020/12/05 02:23:52;;;;;;;17.38;8.85;;;14.40;49.30;;;;;;1039600;28;20053;-72
2020/12/05 02:24:24;;;;;;;19.92;9.02;;;14.40;49.30;;;;;;1040369;28;20022;-72
2020/12/05 02:24:59;;;;;;;16.63;7.97;;;14.30;49.20;;;;;;1036670;28;20457;-72
2020/12/05 02:25:31;;;;;;;19.35;8.52;;;14.20;49.10;;;;;;1036213;28;20388;-72
2020/12/05 02:26:06;;;;;;;13.80;7.72;;;14.10;49.20;;;;;;1036617;28;20735;-72
2020/12/05 02:26:38;;;;;;;14.82;7.93;;;14.10;49.50;;;;;;1036607;28;20096;-72
2020/12/05 02:27:10;;;;;;;15.68;7.97;;;14.10;49.70;;;;;;1037939;28;20017;-71
2020/12/05 02:27:42;;;;;;;16.70;7.95;;;14.10;49.90;;;;;;1039015;28;20108;-72
2020/12/05 02:28:18;;;;;;;20.83;8.30;;;14.10;50.00;;;;;;1037852;28;20022;-72
2020/12/05 02:28:50;;;;;;;15.88;7.90;;;14.00;49.80;;;;;;1038128;28;20481;-72
2020/12/05 02:29:21;;;;;;;17.23;8.40;;;14.00;50.10;;;;;;1037148;28;20156;-72
2020/12/05 02:29:52;;;;;;;16.30;7.47;;;13.90;50.00;;;;;;1037071;28;20029;-72
2020/12/05 02:30:24;;;;;;;15.90;8.05;;;13.90;50.10;;;;;;1034400;28;20054;-72
2020/12/05 02:30:56;;;;;;;20.55;8.02;;;13.90;50.00;;;;;;1034273;28;20038;-72
2020/12/05 02:31:28;;;;;;;18.02;8.35;;;13.90;49.90;;;;;;1037000;28;20021;-72
2020/12/05 02:32:02;;;;;;;16.30;8.05;;;13.90;50.00;;;;;;1034213;28;20030;-71
2020/12/05 02:32:33;;;;;;;14.00;7.65;;;13.90;49.70;;;;;;1040586;28;20092;-72
2020/12/05 02:33:05;;;;;;;13.82;7.15;;;13.90;49.60;;;;;;1040512;28;20026;-72
2020/12/05 02:33:37;;;;;;;19.33;7.55;;;13.80;49.40;;;;;;1039023;28;20025;-73
2020/12/05 02:34:08;;;;;;;17.67;8.13;;;13.80;49.40;;;;;;1036568;28;20025;-72
2020/12/05 02:34:40;;;;;;;16.75;7.82;;;13.70;49.40;;;;;;1037043;28;20060;-72
2020/12/05 02:35:11;;;;;;;20.80;7.93;;;13.70;49.70;;;;;;1037159;28;20360;-72
2020/12/05 02:35:43;;;;;;;22.38;8.27;;;13.70;49.90;;;;;;1036521;28;20043;-72
2020/12/05 02:36:14;;;;;;;13.98;7.47;;;13.70;49.80;;;;;;1036324;28;20037;-72
2020/12/05 02:36:49;;;;;;;16.48;7.80;;;13.70;50.00;;;;;;1036994;28;20368;-72
2020/12/05 02:37:24;;;;;;;18.17;9.30;;;13.70;50.00;;;;;;1039175;28;20025;-72
2020/12/05 02:38:12;;;;;;;17.25;9.30;;;13.70;50.00;;;;;;1044574;28;20017;-72
2020/12/05 02:39:08;;;;;;;18.20;8.18;;;13.70;49.90;;;;;;1036630;28;20029;-72
2020/12/05 02:39:44;;;;;;;14.63;7.43;;;13.60;49.80;;;;;;1040716;28;20061;-72
2020/12/05 02:40:16;;;;;;;26.55;7.90;;;13.60;49.70;;;;;;1038721;28;20447;-73
2020/12/05 02:40:47;;;;;;;15.85;7.57;;;13.60;49.50;;;;;;1036746;28;20026;-72
2020/12/05 02:41:19;;;;;;;15.73;7.88;;;13.50;49.50;;;;;;1038200;28;20068;-72
2020/12/05 02:41:51;;;;;;;26.95;12.93;;;13.50;49.70;;;;;;1036510;28;20093;-72
2020/12/05 02:42:22;;;;;;;26.77;13.60;;;13.50;49.80;;;;;;1037594;28;20097;-72
2020/12/05 02:42:56;;;;;;;25.90;12.30;;;13.50;49.80;;;;;;1040837;28;20032;-72
2020/12/05 02:43:28;;;;;;;19.38;9.65;;;13.50;49.50;;;;;;1036618;28;20048;-72
2020/12/05 02:44:01;;;;;;;23.63;11.45;;;13.50;49.50;;;;;;1040557;28;20033;-72
2020/12/05 02:44:32;;;;;;;21.33;10.10;;;13.50;49.70;;;;;;1038380;28;20064;-72
2020/12/05 02:45:10;;;;;;;18.70;11.43;;;13.50;49.60;;;;;;1038528;28;20480;-73
2020/12/05 02:45:41;;;;;;;21.50;13.63;;;13.50;49.80;;;;;;1040587;28;20026;-72
2020/12/05 02:46:13;;;;;;;30.38;18.25;;;13.50;49.90;;;;;;1040459;28;20014;-72
2020/12/05 02:46:49;;;;;;;23.98;13.50;;;13.50;50.00;;;;;;1039974;28;20016;-72
2020/12/05 02:47:21;;;;;;;20.23;13.00;;;13.50;49.70;;;;;;1038748;28;20013;-71
2020/12/05 02:48:11;;;;;;;22.08;12.80;;;13.50;49.70;;;;;;1036594;28;20079;-72
2020/12/05 02:48:42;;;;;;;16.52;10.63;;;13.50;49.70;;;;;;1036620;28;20056;-71
2020/12/05 02:49:14;;;;;;;19.48;11.68;;;13.50;49.70;;;;;;1037800;28;20114;-72